createdAt,value
2023-03-02T00:01:11.349Z,14.17
2023-03-02T00:03:41.045Z,10.85
2023-03-02T00:06:09.282Z,11.15
2023-03-02T00:08:37.368Z,10.43
2023-03-02T00:11:04.500Z,11.90
2023-03-02T00:13:32.592Z,17.13
2023-03-02T00:15:59.300Z,12.52
2023-03-02T00:18:26.066Z,12.07
2023-03-02T00:20:52.769Z,11.00
2023-03-02T00:23:19.453Z,10.55
2023-03-02T00:25:46.286Z,9.05
2023-03-02T00:28:12.970Z,11.23
2023-03-02T00:30:40.188Z,9.73
2023-03-02T00:33:07.184Z,10.00
2023-03-02T00:35:38.887Z,9.73
2023-03-02T00:38:07.419Z,9.38
2023-03-02T00:40:35.562Z,9.82
2023-03-02T00:43:02.250Z,12.68
2023-03-02T00:45:28.961Z,10.15
2023-03-02T00:47:55.799Z,11.52
2023-03-02T00:50:22.788Z,10.60
2023-03-02T00:52:49.445Z,9.98
2023-03-02T00:55:16.134Z,10.93
2023-03-02T00:57:44.422Z,11.63
2023-03-02T01:00:11.736Z,9.27
2023-03-02T01:02:44.065Z,9.43
2023-03-02T01:05:11.160Z,9.75
2023-03-02T01:07:39.868Z,9.00
2023-03-02T01:10:07.808Z,8.40
2023-03-02T01:12:34.583Z,9.67
2023-03-02T01:15:01.371Z,8.67
2023-03-02T01:17:28.451Z,9.33
2023-03-02T01:19:55.138Z,8.87
2023-03-02T01:22:22.812Z,8.93
2023-03-02T01:24:50.184Z,8.97
2023-03-02T01:27:16.873Z,7.87
2023-03-02T01:29:43.643Z,8.68
2023-03-02T01:32:10.445Z,8.20
2023-03-02T01:34:38.823Z,8.63
2023-03-02T01:37:05.584Z,7.55
2023-03-02T01:39:32.332Z,6.95
2023-03-02T01:41:58.990Z,7.45
2023-03-02T01:44:38.407Z,8.47
2023-03-02T01:47:38.799Z,8.77
2023-03-02T01:50:05.464Z,11.53
2023-03-02T01:52:34.968Z,8.75
2023-03-02T01:55:06.424Z,8.77
2023-03-02T01:57:43.613Z,8.63
2023-03-02T02:00:16.026Z,8.90
2023-03-02T02:02:42.904Z,8.60
2023-03-02T02:05:19.704Z,9.50
2023-03-02T02:07:46.801Z,9.40
2023-03-02T02:10:14.658Z,11.80
2023-03-02T02:12:41.352Z,14.80
2023-03-02T02:15:08.525Z,9.00
2023-03-02T02:17:35.596Z,8.30
2023-03-02T02:20:07.602Z,8.63
2023-03-02T02:22:44.392Z,7.77
2023-03-02T02:25:34.050Z,7.85
2023-03-02T02:28:03.452Z,8.23
2023-03-02T02:30:30.224Z,8.95
2023-03-02T02:32:58.385Z,7.97
2023-03-02T02:35:30.377Z,7.83
2023-03-02T02:38:03.675Z,7.33
2023-03-02T02:40:54.954Z,7.63
2023-03-02T02:43:23.121Z,7.17
2023-03-02T02:45:53.997Z,10.27
2023-03-02T02:48:24.422Z,7.57
2023-03-02T02:51:00.126Z,8.90
2023-03-02T02:53:40.689Z,7.97
2023-03-02T02:56:09.519Z,8.48
2023-03-02T02:58:44.884Z,8.55
2023-03-02T03:01:16.650Z,9.07
2023-03-02T03:03:49.786Z,53.40
2023-03-02T03:06:21.058Z,18.30
2023-03-02T03:08:53.100Z,22.75
2023-03-02T03:11:31.875Z,12.33
2023-03-02T03:14:01.184Z,9.00
2023-03-02T03:16:30.144Z,10.80
2023-03-02T03:19:01.644Z,9.30
2023-03-02T03:21:28.416Z,8.77
2023-03-02T03:23:55.071Z,10.10
2023-03-02T03:26:21.774Z,7.33
2023-03-02T03:28:48.488Z,8.15
2023-03-02T03:31:15.207Z,7.80
2023-03-02T03:33:41.989Z,7.50
2023-03-02T03:36:09.216Z,8.40
2023-03-02T03:38:36.098Z,8.77
2023-03-02T03:41:02.771Z,9.80
2023-03-02T03:43:29.409Z,9.37
2023-03-02T03:45:56.168Z,14.35
2023-03-02T03:48:24.977Z,9.93
2023-03-02T03:50:51.769Z,7.78
2023-03-02T03:53:18.398Z,19.23
2023-03-02T03:55:45.139Z,32.17
2023-03-02T03:58:11.810Z,21.67
2023-03-02T04:00:38.605Z,15.02
2023-03-02T04:03:05.309Z,10.93
2023-03-02T04:05:32.387Z,7.53
2023-03-02T04:08:02.220Z,7.53
2023-03-02T04:10:29.892Z,8.32
2023-03-02T04:12:57.976Z,11.20
2023-03-02T04:15:24.967Z,15.60
2023-03-02T04:17:52.441Z,14.93
2023-03-02T04:20:21.563Z,22.38
2023-03-02T04:22:50.949Z,28.25
2023-03-02T04:25:19.890Z,14.85
2023-03-02T04:27:47.668Z,9.07
2023-03-02T04:30:15.187Z,13.68
2023-03-02T04:32:43.955Z,15.38
2023-03-02T04:35:11.972Z,19.13
2023-03-02T04:37:39.915Z,13.07
2023-03-02T04:40:08.039Z,10.23
2023-03-02T04:42:35.076Z,10.60
2023-03-02T04:45:02.115Z,9.23
2023-03-02T04:47:28.819Z,10.73
2023-03-02T04:49:56.774Z,10.02
2023-03-02T04:52:25.249Z,25.45
2023-03-02T04:54:52.818Z,17.58
2023-03-02T04:57:19.498Z,14.38
2023-03-02T04:59:46.120Z,14.98
2023-03-02T05:02:12.971Z,12.45
2023-03-02T05:04:41.157Z,11.73
2023-03-02T05:07:08.494Z,10.60
2023-03-02T05:09:35.271Z,16.30
2023-03-02T05:12:02.447Z,23.85
2023-03-02T05:14:30.006Z,16.03
2023-03-02T05:16:57.579Z,15.13
2023-03-02T05:19:24.618Z,17.63
2023-03-02T05:21:51.882Z,23.98
2023-03-02T05:24:19.010Z,30.10
2023-03-02T05:26:45.817Z,32.65
2023-03-02T05:29:12.452Z,32.07
2023-03-02T05:31:42.951Z,48.95
2023-03-02T05:34:12.172Z,41.95
2023-03-02T05:36:39.211Z,27.55
2023-03-02T05:39:07.531Z,25.48
2023-03-02T05:41:34.767Z,21.23
2023-03-02T05:44:02.093Z,34.47
2023-03-02T05:46:29.154Z,30.60
2023-03-02T05:48:55.828Z,20.05
2023-03-02T05:51:22.855Z,18.85
2023-03-02T05:53:49.555Z,13.75
2023-03-02T05:56:16.598Z,14.02
2023-03-02T05:58:43.263Z,15.85
2023-03-02T06:01:14.848Z,26.83
2023-03-02T06:03:42.879Z,19.02
2023-03-02T06:06:14.040Z,31.38
2023-03-02T06:08:41.492Z,25.65
2023-03-02T06:11:09.199Z,34.28
2023-03-02T06:13:36.442Z,36.08
2023-03-02T06:16:03.417Z,29.67
2023-03-02T06:18:30.206Z,32.08
2023-03-02T06:20:57.094Z,24.75
2023-03-02T06:23:23.828Z,20.15
2023-03-02T06:25:50.750Z,18.92
2023-03-02T06:28:20.090Z,11.18
2023-03-02T06:30:52.279Z,10.55
2023-03-02T06:33:21.367Z,9.20
2023-03-02T06:35:48.897Z,9.63
2023-03-02T06:38:15.695Z,14.63
2023-03-02T06:40:42.553Z,11.43
2023-03-02T06:43:09.314Z,13.60
2023-03-02T06:45:36.104Z,14.30
2023-03-02T06:48:02.960Z,12.30
2023-03-02T06:50:29.949Z,10.65
2023-03-02T06:52:56.626Z,11.18
2023-03-02T06:55:24.073Z,11.15
2023-03-02T06:57:51.113Z,16.83
2023-03-02T07:00:25.885Z,24.02
2023-03-02T07:05:20.404Z,17.95
2023-03-02T07:07:48.162Z,16.05
2023-03-02T07:10:14.928Z,17.27
2023-03-02T07:12:42.239Z,17.88
2023-03-02T07:15:12.240Z,15.57
2023-03-02T07:17:40.032Z,24.90
2023-03-02T07:20:07.251Z,20.60
2023-03-02T07:22:34.183Z,20.63
2023-03-02T07:25:00.850Z,21.17
2023-03-02T07:27:27.551Z,14.88
2023-03-02T07:29:54.256Z,17.90
2023-03-02T07:32:20.981Z,20.58
2023-03-02T07:34:48.832Z,22.83
2023-03-02T07:37:15.946Z,20.40
2023-03-02T07:39:42.601Z,18.95
2023-03-02T07:42:12.673Z,17.52
2023-03-02T07:44:39.455Z,17.02
2023-03-02T07:47:08.191Z,13.55
2023-03-02T07:49:37.875Z,13.32
2023-03-02T07:52:05.542Z,16.02
2023-03-02T07:54:32.468Z,15.75
2023-03-02T07:56:59.278Z,13.60
2023-03-02T07:59:26.215Z,20.15
2023-03-02T08:01:54.197Z,19.77
2023-03-02T08:04:21.072Z,20.92
2023-03-02T08:06:47.749Z,19.63
2023-03-02T08:09:16.839Z,16.05
2023-03-02T08:11:44.978Z,23.13
2023-03-02T08:14:12.374Z,18.13
2023-03-02T08:16:39.838Z,13.60
2023-03-02T08:19:07.902Z,13.40
2023-03-02T08:21:35.169Z,14.30
2023-03-02T08:24:02.115Z,15.18
2023-03-02T08:26:30.269Z,15.77
2023-03-02T08:28:56.939Z,15.18
2023-03-02T08:31:23.681Z,16.05
2023-03-02T08:33:50.435Z,16.92
2023-03-02T08:36:19.204Z,14.85
2023-03-02T08:38:46.753Z,15.65
2023-03-02T08:41:20.085Z,14.80
2023-03-02T08:43:48.056Z,14.77
2023-03-02T08:46:17.094Z,14.48
2023-03-02T08:48:44.367Z,15.68
2023-03-02T08:51:17.179Z,13.30
2023-03-02T08:53:46.693Z,16.08
2023-03-02T08:56:17.466Z,13.02
2023-03-02T08:58:44.320Z,17.92
2023-03-02T09:01:23.612Z,17.92
2023-03-02T09:03:50.897Z,17.05
2023-03-02T09:06:18.146Z,12.68
2023-03-02T09:08:45.110Z,18.90
2023-03-02T09:11:12.008Z,20.05
2023-03-02T09:13:38.698Z,20.60
2023-03-02T09:16:06.331Z,16.88
2023-03-02T09:18:34.571Z,16.08
2023-03-02T09:21:02.902Z,14.10
2023-03-02T09:23:30.574Z,13.25
2023-03-02T09:25:57.244Z,14.23
2023-03-02T09:28:24.552Z,16.77
2023-03-02T09:30:53.191Z,18.15
2023-03-02T09:33:20.739Z,16.17
2023-03-02T09:35:47.791Z,15.93
2023-03-02T09:38:18.577Z,16.05
2023-03-02T09:41:24.356Z,13.27
2023-03-02T09:44:21.732Z,18.73
2023-03-02T09:47:00.644Z,18.05
2023-03-02T09:49:45.648Z,15.68
2023-03-02T09:52:40.672Z,14.60
2023-03-02T09:55:16.818Z,12.98
2023-03-02T09:57:44.322Z,16.53
2023-03-02T10:00:20.376Z,17.65
2023-03-02T10:02:55.414Z,15.75
2023-03-02T10:05:35.271Z,18.02
2023-03-02T10:08:02.096Z,18.02
2023-03-02T10:10:45.020Z,14.05
2023-03-02T10:13:17.600Z,18.15
2023-03-02T10:15:53.392Z,17.70
2023-03-02T10:18:31.923Z,15.88
2023-03-02T10:21:41.412Z,15.90
2023-03-02T10:24:13.888Z,14.10
2023-03-02T10:26:45.052Z,16.85
2023-03-02T10:29:22.885Z,18.15
2023-03-02T10:31:53.664Z,14.65
2023-03-02T10:34:20.375Z,13.55
2023-03-02T10:36:47.870Z,15.50
2023-03-02T10:39:17.103Z,14.27
2023-03-02T10:41:51.797Z,12.33
2023-03-02T10:44:31.928Z,16.08
2023-03-02T10:46:59.509Z,17.85
2023-03-02T10:49:35.814Z,16.52
2023-03-02T10:52:05.676Z,17.40
2023-03-02T10:54:36.878Z,18.63
2023-03-02T10:57:07.375Z,21.07
2023-03-02T10:59:44.870Z,25.23
2023-03-02T11:02:23.196Z,15.70
2023-03-02T11:04:57.465Z,25.23
2023-03-02T11:07:28.060Z,31.70
2023-03-02T11:10:19.078Z,29.90
2023-03-02T11:12:51.391Z,26.00
2023-03-02T11:15:21.767Z,16.88
2023-03-02T11:17:54.197Z,18.88
2023-03-02T11:20:26.179Z,10.85
2023-03-02T11:22:52.819Z,25.20
2023-03-02T11:25:30.427Z,19.88
2023-03-02T11:28:05.721Z,10.30
2023-03-02T11:30:36.565Z,10.88
2023-03-02T11:33:12.895Z,12.18
2023-03-02T11:35:55.940Z,11.32
2023-03-02T11:38:30.171Z,12.60
2023-03-02T11:41:27.327Z,13.70
2023-03-02T11:43:55.070Z,13.13
2023-03-02T11:46:30.664Z,16.70
2023-03-02T11:49:03.647Z,13.77
2023-03-02T11:51:36.856Z,12.98
2023-03-02T11:54:13.364Z,13.18
2023-03-02T11:56:40.312Z,17.90
2023-03-02T11:59:27.655Z,13.50
2023-03-02T12:01:57.272Z,10.68
2023-03-02T12:04:32.543Z,10.63
2023-03-02T12:07:02.534Z,11.75
2023-03-02T12:09:38.251Z,11.27
2023-03-02T12:12:28.241Z,9.43
2023-03-02T12:14:55.027Z,8.38
2023-03-02T12:17:30.823Z,9.02
2023-03-02T12:20:09.409Z,11.15
2023-03-02T12:22:37.799Z,10.73
2023-03-02T12:25:24.775Z,11.25
2023-03-02T12:27:53.745Z,10.40
2023-03-02T12:30:26.816Z,10.68
2023-03-02T12:33:01.761Z,9.35
2023-03-02T12:35:32.253Z,12.43
2023-03-02T12:38:03.162Z,13.00
2023-03-02T12:40:39.319Z,11.95
2023-03-02T12:43:18.104Z,9.95
2023-03-02T12:46:07.006Z,14.68
2023-03-02T12:48:45.990Z,17.38
2023-03-02T12:51:22.557Z,14.85
2023-03-02T12:53:50.616Z,11.80
2023-03-02T12:56:25.851Z,7.80
2023-03-02T12:58:53.847Z,11.65
2023-03-02T13:01:23.688Z,15.48
2023-03-02T13:03:50.977Z,40.55
2023-03-02T13:06:20.270Z,20.95
2023-03-02T13:08:51.301Z,18.63
2023-03-02T13:11:34.809Z,24.45
2023-03-02T13:14:17.312Z,14.85
2023-03-02T13:16:57.846Z,17.85
2023-03-02T13:19:26.308Z,9.18
2023-03-02T13:21:53.426Z,31.40
2023-03-02T13:24:33.690Z,32.67
2023-03-02T13:27:26.725Z,18.33
2023-03-02T13:29:55.772Z,36.50
2023-03-02T13:32:34.422Z,13.38
2023-03-02T13:35:02.914Z,11.38
2023-03-02T13:37:33.805Z,11.02
2023-03-02T13:40:07.328Z,10.70
2023-03-02T13:42:40.023Z,11.68
2023-03-02T13:45:21.798Z,15.98
2023-03-02T13:47:51.469Z,13.23
2023-03-02T13:50:30.171Z,11.57
2023-03-02T13:53:00.664Z,16.70
2023-03-02T13:55:27.603Z,15.75
2023-03-02T13:57:55.498Z,14.82
2023-03-02T14:00:35.093Z,19.20
2023-03-02T14:03:02.212Z,19.33
2023-03-02T14:05:33.465Z,21.92
2023-03-02T14:08:00.580Z,19.55
2023-03-02T14:10:27.544Z,19.25
2023-03-02T14:12:59.770Z,20.38
2023-03-02T14:15:28.354Z,16.90
2023-03-02T14:17:55.193Z,29.30
2023-03-02T14:20:21.866Z,25.40
2023-03-02T14:22:50.652Z,19.00
2023-03-02T14:25:17.802Z,15.38
2023-03-02T14:27:47.200Z,19.70
2023-03-02T14:30:17.530Z,28.20
2023-03-02T14:32:44.396Z,8.90
2023-03-02T14:35:15.706Z,9.38
2023-03-02T14:37:49.991Z,16.17
2023-03-02T14:40:28.234Z,21.20
2023-03-02T14:42:55.158Z,18.42
2023-03-02T14:45:23.131Z,19.25
2023-03-02T14:47:49.817Z,15.85
2023-03-02T14:50:17.394Z,15.88
2023-03-02T14:52:55.976Z,12.88
2023-03-02T14:55:29.824Z,10.70
2023-03-02T14:57:59.841Z,14.35
2023-03-02T15:00:27.144Z,14.63
2023-03-02T15:02:54.282Z,19.13
2023-03-02T15:05:21.721Z,16.67
2023-03-02T15:07:49.093Z,12.75
2023-03-02T15:10:20.869Z,13.50
2023-03-02T15:12:47.597Z,18.42
2023-03-02T15:15:14.265Z,17.50
2023-03-02T15:17:41.896Z,18.52
2023-03-02T15:20:15.135Z,13.68
2023-03-02T15:22:41.864Z,29.03
2023-03-02T15:25:08.931Z,19.27
2023-03-02T15:27:35.627Z,27.00
2023-03-02T15:30:02.364Z,22.23
2023-03-02T15:32:29.073Z,25.43
2023-03-02T15:34:55.958Z,16.45
2023-03-02T15:37:22.569Z,22.75
2023-03-02T15:39:54.316Z,18.27
2023-03-02T15:42:21.078Z,17.40
2023-03-02T15:44:48.461Z,25.73
2023-03-02T15:47:15.339Z,29.47
2023-03-02T15:49:42.080Z,28.17
2023-03-02T15:52:10.065Z,31.27
2023-03-02T15:54:36.695Z,34.70
2023-03-02T15:57:03.506Z,34.47
2023-03-02T15:59:31.573Z,14.27
2023-03-02T16:02:02.519Z,13.73
2023-03-02T16:04:31.313Z,18.77
2023-03-02T16:06:58.450Z,26.00
2023-03-02T16:09:26.566Z,30.67
2023-03-02T16:11:53.455Z,16.80
2023-03-02T16:14:20.311Z,21.43
2023-03-02T16:16:47.267Z,20.20
2023-03-02T16:19:18.888Z,25.37
2023-03-02T16:21:47.156Z,24.70
2023-03-02T16:24:16.166Z,31.03
2023-03-02T16:26:44.842Z,15.33
2023-03-02T16:29:12.554Z,17.97
2023-03-02T16:31:40.445Z,21.87
2023-03-02T16:34:09.114Z,26.83
2023-03-02T16:36:38.303Z,21.50
2023-03-02T16:39:06.057Z,23.30
2023-03-02T16:41:33.728Z,21.93
2023-03-02T16:44:01.205Z,23.77
2023-03-02T16:46:30.398Z,21.00
2023-03-02T16:48:58.294Z,27.10
2023-03-02T16:51:25.058Z,28.27
2023-03-02T16:53:51.790Z,26.37
2023-03-02T16:56:18.923Z,25.90
2023-03-02T16:58:45.990Z,24.53
2023-03-02T17:01:16.418Z,23.13
2023-03-02T17:03:43.747Z,22.03
2023-03-02T17:06:12.232Z,40.63
2023-03-02T17:08:39.403Z,37.30
2023-03-02T17:11:07.181Z,27.57
2023-03-02T17:13:34.306Z,35.37
2023-03-02T17:16:01.478Z,26.02
2023-03-02T17:18:29.304Z,27.17
2023-03-02T17:20:58.976Z,22.97
2023-03-02T17:23:27.200Z,19.23
2023-03-02T17:25:54.770Z,23.23
2023-03-02T17:28:21.644Z,47.20
2023-03-02T17:30:48.453Z,41.17
2023-03-02T17:33:15.366Z,38.30
2023-03-02T17:35:42.958Z,34.37
2023-03-02T17:38:09.702Z,39.90
2023-03-02T17:40:36.555Z,37.23
2023-03-02T17:43:03.262Z,37.73
2023-03-02T17:45:30.202Z,38.67
2023-03-02T17:47:58.413Z,42.80
2023-03-02T17:50:25.800Z,39.07
2023-03-02T17:52:54.206Z,38.93
2023-03-02T17:55:21.275Z,39.53
2023-03-02T17:57:48.375Z,38.77
2023-03-02T18:00:17.806Z,43.03
2023-03-02T18:02:44.655Z,46.10
2023-03-02T18:05:12.808Z,49.40
2023-03-02T18:07:39.609Z,51.10
2023-03-02T18:10:07.475Z,56.77
2023-03-02T18:12:35.492Z,63.53
2023-03-02T18:15:02.360Z,54.83
2023-03-02T18:17:29.279Z,49.10
2023-03-02T18:19:55.990Z,41.53
2023-03-02T18:22:22.711Z,38.90
2023-03-02T18:24:51.390Z,36.30
2023-03-02T18:27:18.231Z,38.80
2023-03-02T18:29:45.014Z,56.40
2023-03-02T18:32:12.386Z,49.33
2023-03-02T18:34:39.180Z,44.07
2023-03-02T18:37:05.843Z,47.03
2023-03-02T18:39:32.599Z,36.73
2023-03-02T18:41:59.825Z,34.67
2023-03-02T18:44:28.240Z,35.83
2023-03-02T18:46:55.554Z,35.47
2023-03-02T18:49:22.913Z,31.83
2023-03-02T18:51:50.026Z,33.77
2023-03-02T18:54:17.658Z,29.23
2023-03-02T18:56:44.714Z,34.40
2023-03-02T18:59:12.330Z,36.40
2023-03-02T19:01:39.095Z,33.57
2023-03-02T19:04:06.104Z,32.80
2023-03-02T19:06:34.319Z,39.40
2023-03-02T19:09:01.125Z,35.83
2023-03-02T19:11:28.082Z,32.07
2023-03-02T19:13:55.189Z,41.27
2023-03-02T19:16:22.651Z,41.63
2023-03-02T19:18:50.238Z,38.30
2023-03-02T19:21:17.551Z,45.50
2023-03-02T19:23:46.264Z,43.47
2023-03-02T19:26:13.915Z,40.17
2023-03-02T19:28:40.800Z,39.10
2023-03-02T19:31:09.432Z,41.27
2023-03-02T19:33:36.661Z,47.43
2023-03-02T19:36:04.451Z,45.83
2023-03-02T19:38:31.351Z,46.63
2023-03-02T19:41:00.164Z,49.43
2023-03-02T19:43:27.817Z,39.37
2023-03-02T19:45:54.800Z,42.70
2023-03-02T19:48:21.871Z,42.10
2023-03-02T19:50:48.687Z,35.87
2023-03-02T19:53:17.217Z,35.10
2023-03-02T19:55:44.564Z,38.17
2023-03-02T19:58:17.274Z,35.87
2023-03-02T20:00:46.189Z,36.30
2023-03-02T20:03:14.012Z,30.90
2023-03-02T20:05:42.588Z,37.00
2023-03-02T20:08:09.322Z,33.87
2023-03-02T20:10:41.393Z,30.93
2023-03-02T20:13:09.010Z,29.60
2023-03-02T20:15:40.486Z,29.40
2023-03-02T20:18:09.902Z,32.80
2023-03-02T20:20:36.794Z,28.83
2023-03-02T20:23:04.647Z,19.43
2023-03-02T20:25:31.638Z,33.30
2023-03-02T20:27:58.538Z,23.27
2023-03-02T20:30:32.601Z,29.20
2023-03-02T20:33:00.141Z,27.63
2023-03-02T20:35:29.459Z,25.27
2023-03-02T20:37:58.118Z,18.93
2023-03-02T20:40:25.254Z,25.43
2023-03-02T20:42:52.422Z,24.60
2023-03-02T20:45:19.508Z,25.97
2023-03-02T20:47:46.913Z,23.77
2023-03-02T20:50:19.383Z,34.00
2023-03-02T20:52:46.208Z,38.93
2023-03-02T20:55:13.688Z,33.90
2023-03-02T20:57:43.900Z,29.87
2023-03-02T21:00:16.575Z,31.77
2023-03-02T21:02:47.573Z,26.93
2023-03-02T21:05:15.730Z,31.40
2023-03-02T21:07:43.660Z,26.53
2023-03-02T21:10:14.513Z,26.07
2023-03-02T21:12:41.952Z,25.30
2023-03-02T21:15:10.551Z,25.37
2023-03-02T21:17:37.776Z,26.07
2023-03-02T21:20:05.911Z,25.90
2023-03-02T21:22:33.138Z,23.87
2023-03-02T21:25:08.562Z,24.37
2023-03-02T21:27:37.214Z,21.90
2023-03-02T21:30:09.326Z,21.60
2023-03-02T21:32:36.013Z,23.97
2023-03-02T21:35:02.821Z,25.23
2023-03-02T21:37:33.458Z,25.30
2023-03-02T21:40:00.197Z,22.90
2023-03-02T21:42:27.311Z,25.90
2023-03-02T21:44:54.023Z,26.07
2023-03-02T21:47:20.692Z,29.77
2023-03-02T21:49:48.004Z,28.93
2023-03-02T21:52:15.183Z,25.87
2023-03-02T21:54:42.082Z,32.60
2023-03-02T21:57:09.742Z,27.07
2023-03-02T21:59:37.334Z,27.43
2023-03-02T22:02:05.053Z,21.70
2023-03-02T22:04:33.041Z,19.80
2023-03-02T22:07:01.056Z,21.90
2023-03-02T22:09:27.791Z,21.07
2023-03-02T22:11:54.513Z,25.80
2023-03-02T22:14:21.335Z,26.17
2023-03-02T22:16:48.311Z,27.53
2023-03-02T22:19:28.045Z,27.77
2023-03-02T22:21:56.941Z,24.20
2023-03-02T22:24:31.981Z,22.77
2023-03-02T22:27:04.821Z,24.80
2023-03-02T22:29:34.595Z,26.10
2023-03-02T22:32:15.642Z,22.37
2023-03-02T22:34:43.848Z,22.67
2023-03-02T22:37:17.645Z,25.60
2023-03-02T22:39:45.079Z,21.90
2023-03-02T22:42:13.963Z,21.17
2023-03-02T22:44:41.071Z,23.60
2023-03-02T22:47:18.488Z,24.10
2023-03-02T22:49:46.007Z,23.47
2023-03-02T22:52:20.550Z,20.13
2023-03-02T22:54:47.317Z,17.73
2023-03-02T22:57:41.250Z,15.63
2023-03-02T23:00:07.845Z,15.53
2023-03-02T23:02:41.046Z,17.63
2023-03-02T23:05:30.286Z,18.37
2023-03-02T23:08:18.169Z,16.90
2023-03-02T23:10:46.336Z,16.47
2023-03-02T23:13:15.588Z,19.17
2023-03-02T23:15:42.491Z,18.93
2023-03-02T23:18:23.512Z,19.87
2023-03-02T23:20:51.167Z,17.57
2023-03-02T23:23:19.812Z,16.67
2023-03-02T23:25:46.856Z,20.00
2023-03-02T23:28:13.658Z,20.13
2023-03-02T23:30:40.779Z,18.00
2023-03-02T23:33:07.500Z,19.80
2023-03-02T23:35:34.795Z,19.33
2023-03-02T23:38:01.525Z,17.03
2023-03-02T23:40:29.172Z,15.67
2023-03-02T23:42:56.118Z,18.43
2023-03-02T23:45:23.005Z,17.07
2023-03-02T23:47:49.737Z,17.07
2023-03-02T23:50:17.454Z,15.33
2023-03-02T23:52:44.074Z,24.83
2023-03-02T23:55:11.001Z,20.33
2023-03-02T23:57:37.699Z,17.77
